Biddulph, United Kingdom
Current Conditions -  °F | °C
As of 1:20 AM on Tuesday 25 Nov 2014 (Local Time) from EGCC Reporting Station
Few Clouds Few Clouds  
Wind Chill: 31°   Ceiling: Unl
Heat Index: 37°   Visibility: 6mi
Dew Point: 37°   Wind: 8mph
Humidity: 100%   Direction: 170°S
Pressure: 30.3"   Gusts: NA
Location:  53.12°N, 2.18°W
Report Text: EGCC 250120Z 17007KT 9999 FEW036 03/03 Q1026 NOSIG
Loading
Personal Weather Stations






























Interactive Weather Map New forecast layout! Learn more

10-Day Weather Forecast

Advertisements
Track Severe Weather on mobile